Time;durP1;ratioP1;P1;durP2;ratioP2;P2;SDS_P1;SDS_P2;PMS_P1;PMS_P2;Temp;Humidity;BMP_temperature;BMP_pressure;BME280_temperature;BME280_humidity;BME280_pressure;Samples;Min_cycle;Max_cycle;Signal;HPM_P1;HPM_P2
2021/12/03 00:00:51;;;;;;;5.40;2.13;;;12.40;99.80;;;;;;5015532;28;20033;-52
2021/12/03 00:03:16;;;;;;;11.85;4.97;;;12.40;99.80;;;;;;5015552;28;20113;-52
2021/12/03 00:05:42;;;;;;;6.75;3.30;;;12.40;99.90;;;;;;5015590;28;20034;-52
2021/12/03 00:08:09;;;;;;;3.75;2.05;;;12.40;99.80;;;;;;5029632;28;20088;-52
2021/12/03 00:10:37;;;;;;;10.25;6.55;;;12.40;99.90;;;;;;5013254;28;20045;-52
2021/12/03 00:13:06;;;;;;;8.93;6.57;;;12.20;99.90;;;;;;5015133;28;20044;-52
2021/12/03 00:15:33;;;;;;;13.05;9.10;;;11.90;99.90;;;;;;5015511;28;20107;-53
2021/12/03 00:17:59;;;;;;;12.18;9.95;;;11.60;99.90;;;;;;5015144;28;20026;-53
2021/12/03 00:20:25;;;;;;;16.33;10.93;;;11.50;99.90;;;;;;5013978;28;20096;-52
2021/12/03 00:22:55;;;;;;;12.60;10.48;;;11.30;99.90;;;;;;5014759;28;20038;-52
2021/12/03 00:25:21;;;;;;;17.95;12.20;;;11.10;99.90;;;;;;5014983;28;20033;-51
2021/12/03 00:27:47;;;;;;;15.63;12.40;;;10.80;99.90;;;;;;5014981;28;20034;-53
2021/12/03 00:30:15;;;;;;;16.90;13.10;;;10.60;99.90;;;;;;5014777;28;20026;-52
2021/12/03 00:32:42;;;;;;;14.57;12.60;;;10.60;99.90;;;;;;5014789;28;20097;-52
2021/12/03 00:35:09;;;;;;;16.15;13.02;;;10.40;99.90;;;;;;5014828;28;20118;-55
2021/12/03 00:37:37;;;;;;;17.55;14.10;;;10.30;99.90;;;;;;5014676;28;20394;-53
2021/12/03 00:40:08;;;;;;;17.25;13.07;;;10.20;99.90;;;;;;5014859;28;20037;-52
2021/12/03 00:42:34;;;;;;;17.75;14.10;;;10.20;99.90;;;;;;4980309;28;20081;-52
2021/12/03 00:45:01;;;;;;;8.85;5.90;;;10.00;99.90;;;;;;5014689;28;20033;-51
2021/12/03 00:47:27;;;;;;;15.68;12.07;;;9.80;99.90;;;;;;5014407;28;20068;-51
2021/12/03 00:49:54;;;;;;;13.15;10.18;;;;;;;;;;5014818;28;20026;-51
2021/12/03 00:52:19;;;;;;;16.52;12.00;;;9.70;99.90;;;;;;5014703;28;20022;-50
2021/12/03 00:54:45;;;;;;;16.33;13.45;;;9.50;99.90;;;;;;5014607;28;20049;-51
2021/12/03 00:57:12;;;;;;;14.93;11.77;;;9.50;99.90;;;;;;5014455;28;20115;-50
2021/12/03 00:59:38;;;;;;;15.88;13.73;;;9.40;99.90;;;;;;5014577;28;20060;-50
2021/12/03 01:02:04;;;;;;;15.27;12.02;;;9.30;99.90;;;;;;5012111;28;20042;-49
2021/12/03 01:04:29;;;;;;;13.20;11.63;;;9.20;99.90;;;;;;5014646;28;20362;-51
2021/12/03 01:06:55;;;;;;;13.50;11.20;;;9.20;99.90;;;;;;5014194;28;20034;-50
2021/12/03 01:09:21;;;;;;;14.73;13.10;;;9.10;99.90;;;;;;5013345;28;20038;-49
2021/12/03 01:11:49;;;;;;;14.65;12.68;;;9.20;99.90;;;;;;5013946;28;20026;-50
2021/12/03 01:14:15;;;;;;;13.13;10.82;;;9.20;99.90;;;;;;5014019;28;20034;-51
2021/12/03 01:16:41;;;;;;;8.85;7.40;;;9.10;99.90;;;;;;5013780;28;20034;-52
2021/12/03 01:19:07;;;;;;;10.07;9.00;;;8.90;99.90;;;;;;5014152;28;20040;-52
2021/12/03 01:21:32;;;;;;;13.18;10.75;;;8.80;99.90;;;;;;5013948;28;20065;-51
2021/12/03 01:23:58;;;;;;;12.02;10.73;;;8.90;99.90;;;;;;5028443;28;20091;-51
2021/12/03 01:26:24;;;;;;;11.68;9.35;;;8.90;99.90;;;;;;5028354;28;20034;-51
2021/12/03 01:28:51;;;;;;;8.38;6.88;;;8.80;99.90;;;;;;5028291;28;20071;-52
2021/12/03 01:31:18;;;;;;;10.10;9.05;;;8.80;99.90;;;;;;5014030;28;20022;-51
2021/12/03 01:33:45;;;;;;;6.05;5.10;;;8.80;99.90;;;;;;5028255;28;20045;-51
2021/12/03 01:36:12;;;;;;;10.15;9.15;;;8.80;99.90;;;;;;5013730;28;20032;-51
2021/12/03 01:38:38;;;;;;;8.32;7.25;;;8.80;99.90;;;;;;5013615;28;20025;-53
2021/12/03 01:41:04;;;;;;;8.60;7.70;;;8.70;99.90;;;;;;5028141;28;20088;-52
2021/12/03 01:43:30;;;;;;;9.88;8.88;;;8.70;99.90;;;;;;5013573;28;20095;-52
2021/12/03 01:46:03;;;;;;;8.13;7.22;;;8.60;99.90;;;;;;5013455;28;20053;-51
2021/12/03 01:48:33;;;;;;;8.63;6.78;;;8.50;99.90;;;;;;5013615;28;20030;-51
2021/12/03 01:50:59;;;;;;;8.13;7.10;;;8.50;99.90;;;;;;5011361;28;20125;-51
2021/12/03 01:53:29;;;;;;;7.65;6.85;;;8.60;99.90;;;;;;5013357;28;20588;-52
2021/12/03 01:55:58;;;;;;;6.90;6.22;;;8.50;99.90;;;;;;5013877;28;20037;-52
2021/12/03 01:58:24;;;;;;;7.75;6.88;;;8.50;99.90;;;;;;5013642;28;20030;-52
2021/12/03 02:00:54;;;;;;;7.90;6.78;;;8.50;99.90;;;;;;5027708;28;20402;-54
2021/12/03 02:03:25;;;;;;;8.20;7.40;;;8.50;99.90;;;;;;5013218;28;20240;-52
2021/12/03 02:05:52;;;;;;;7.32;6.63;;;8.50;99.90;;;;;;5013104;28;20029;-53
2021/12/03 02:08:18;;;;;;;6.88;5.82;;;8.60;99.90;;;;;;5013207;28;20398;-52
2021/12/03 02:10:45;;;;;;;7.95;6.03;;;8.50;99.90;;;;;;5012714;28;20034;-52
2021/12/03 02:13:13;;;;;;;6.65;6.05;;;8.50;99.90;;;;;;5013036;28;20113;-52
2021/12/03 02:15:40;;;;;;;7.38;6.68;;;8.50;99.90;;;;;;5026035;28;20042;-52
2021/12/03 02:18:08;;;;;;;6.32;5.72;;;8.50;99.90;;;;;;5012650;28;20034;-53
2021/12/03 02:20:34;;;;;;;5.80;5.30;;;8.50;99.90;;;;;;5011341;28;20482;-52
2021/12/03 02:23:01;;;;;;;6.22;5.63;;;8.40;99.90;;;;;;5007539;28;20050;-51
2021/12/03 02:25:27;;;;;;;6.22;5.13;;;8.40;99.90;;;;;;4967137;28;20026;-52
2021/12/03 02:27:57;;;;;;;4.50;4.10;;;8.40;99.90;;;;;;5016505;28;20041;-53
2021/12/03 02:30:24;;;;;;;4.70;4.30;;;8.30;99.90;;;;;;5003572;28;20037;-53
2021/12/03 02:32:51;;;;;;;3.20;2.90;;;8.30;99.90;;;;;;5002179;28;20026;-51
2021/12/03 02:35:18;;;;;;;4.72;3.80;;;8.20;99.90;;;;;;5015977;28;20038;-53
2021/12/03 02:37:45;;;;;;;4.75;4.00;;;8.30;99.90;;;;;;5032499;28;20399;-52
2021/12/03 02:40:11;;;;;;;2.55;2.20;;;8.40;99.90;;;;;;5004175;28;20468;-52
2021/12/03 02:42:37;;;;;;;3.35;3.03;;;8.00;99.90;;;;;;5003240;28;20076;-53
2021/12/03 02:45:05;;;;;;;2.65;2.28;;;8.10;99.90;;;;;;5008160;28;20022;-51
2021/12/03 02:47:31;;;;;;;3.45;2.60;;;8.00;99.90;;;;;;4995959;28;20076;-54
2021/12/03 02:49:57;;;;;;;3.65;2.00;;;7.80;99.90;;;;;;4946021;28;20093;-48
2021/12/03 02:52:23;;;;;;;1.77;1.33;;;7.90;99.90;;;;;;5008647;28;20037;-47
2021/12/03 02:54:49;;;;;;;13.70;12.30;;;7.80;99.90;;;;;;4996707;28;20111;-51
2021/12/03 02:57:15;;;;;;;3.17;1.80;;;7.80;99.90;;;;;;4993502;28;20049;-49
2021/12/03 02:59:41;;;;;;;2.22;1.08;;;7.80;99.90;;;;;;5009468;28;20029;-51
2021/12/03 03:02:07;;;;;;;1.08;0.90;;;7.70;99.90;;;;;;5010410;28;20389;-50
2021/12/03 03:04:33;;;;;;;1.33;0.77;;;7.50;99.90;;;;;;5003115;28;20022;-54
2021/12/03 03:07:00;;;;;;;1.77;1.20;;;7.40;99.90;;;;;;5010137;28;20489;-52
2021/12/03 03:09:26;;;;;;;1.55;0.88;;;7.30;99.90;;;;;;5011836;28;20033;-47
2021/12/03 03:11:52;;;;;;;4.15;1.05;;;7.30;99.90;;;;;;5026776;28;20371;-52
2021/12/03 03:14:18;;;;;;;0.73;0.70;;;7.30;99.90;;;;;;5012269;28;20041;-51
2021/12/03 03:16:44;;;;;;;3.53;1.42;;;7.20;99.90;;;;;;5012260;28;20042;-51
2021/12/03 03:19:13;;;;;;;2.50;2.00;;;7.30;99.90;;;;;;5011592;28;20041;-50
2021/12/03 03:21:40;;;;;;;2.13;1.65;;;7.50;99.90;;;;;;5012094;28;20038;-47
2021/12/03 03:24:08;;;;;;;2.08;1.75;;;7.50;99.90;;;;;;5026915;28;20038;-52
2021/12/03 03:26:39;;;;;;;1.10;0.93;;;7.50;99.90;;;;;;5013758;28;20490;-51
2021/12/03 03:29:08;;;;;;;3.05;1.90;;;7.40;99.90;;;;;;5016122;28;20030;-52
2021/12/03 03:31:35;;;;;;;2.25;1.60;;;7.40;99.90;;;;;;5013757;28;20073;-50
2021/12/03 03:34:02;;;;;;;1.60;1.30;;;7.50;99.90;;;;;;5013661;28;20069;-53
2021/12/03 03:36:32;;;;;;;1.85;1.45;;;7.40;99.90;;;;;;5013556;28;20037;-49
2021/12/03 03:38:58;;;;;;;32.08;28.83;;;7.40;99.90;;;;;;5013609;28;20384;-50
2021/12/03 03:41:24;;;;;;;2.33;1.90;;;7.50;99.90;;;;;;5013455;28;20040;-51
2021/12/03 03:43:50;;;;;;;2.30;1.90;;;7.40;99.90;;;;;;5013425;28;20045;-53
2021/12/03 03:46:15;;;;;;;2.15;1.45;;;7.60;99.90;;;;;;4996700;28;20494;-50
2021/12/03 03:48:41;;;;;;;3.05;1.67;;;7.30;99.90;;;;;;5013359;28;20033;-53
2021/12/03 03:51:07;;;;;;;2.80;1.35;;;7.20;99.90;;;;;;5013120;28;20121;-53
2021/12/03 03:53:33;;;;;;;3.25;2.13;;;7.20;99.90;;;;;;5013237;28;20117;-54
2021/12/03 03:55:59;;;;;;;2.22;1.63;;;7.10;99.90;;;;;;4980349;28;20128;-50
2021/12/03 03:58:25;;;;;;;1.70;1.60;;;7.10;99.90;;;;;;5013396;28;20117;-48
2021/12/03 04:00:51;;;;;;;2.55;1.52;;;7.10;99.90;;;;;;5013268;28;20029;-49
2021/12/03 04:03:17;;;;;;;2.58;1.90;;;7.10;99.90;;;;;;5014862;28;20057;-52
2021/12/03 04:05:43;;;;;;;2.90;1.67;;;7.10;99.90;;;;;;5013459;28;20412;-53
2021/12/03 04:08:09;;;;;;;2.20;1.63;;;7.00;99.90;;;;;;5013985;28;20044;-47
2021/12/03 04:10:35;;;;;;;2.80;1.65;;;7.00;99.90;;;;;;5014289;28;20033;-51
2021/12/03 04:13:01;;;;;;;0.73;0.70;;;7.00;99.90;;;;;;5015265;28;20025;-48
2021/12/03 04:15:27;;;;;;;2.35;0.90;;;6.80;99.90;;;;;;5014011;28;20442;-52
2021/12/03 04:17:53;;;;;;;1.98;0.82;;;7.00;99.90;;;;;;5012992;28;20041;-49
2021/12/03 04:20:20;;;;;;;3.17;1.50;;;;;;;;;;5015077;28;20037;-52
2021/12/03 04:22:46;;;;;;;2.20;1.55;;;;;;;;;;5015006;28;20382;-48
2021/12/03 04:25:15;;;;;;;40.42;17.60;;;6.80;99.90;;;;;;5015034;28;20034;-48
2021/12/03 04:27:42;;;;;;;0.68;0.57;;;6.90;99.90;;;;;;5015198;28;20018;-49
2021/12/03 04:30:12;;;;;;;1.23;0.65;;;6.70;99.90;;;;;;5014822;28;20118;-50
2021/12/03 04:32:38;;;;;;;1.17;0.73;;;6.50;99.90;;;;;;5012882;28;20402;-52
2021/12/03 04:35:05;;;;;;;1.30;1.17;;;6.50;99.90;;;;;;5029415;28;20038;-52
2021/12/03 04:37:31;;;;;;;1.17;0.40;;;6.30;99.90;;;;;;5028791;28;20038;-55
2021/12/03 04:39:57;;;;;;;0.40;0.40;;;6.10;99.90;;;;;;5029348;28;20034;-54
2021/12/03 04:42:23;;;;;;;0.60;0.60;;;6.20;99.90;;;;;;5014648;28;20386;-49
2021/12/03 04:44:49;;;;;;;0.47;0.38;;;6.10;99.90;;;;;;5014545;28;20127;-48
2021/12/03 04:47:14;;;;;;;0.60;0.40;;;6.20;99.90;;;;;;5014886;28;20092;-51
2021/12/03 04:49:40;;;;;;;1.98;1.00;;;6.00;99.90;;;;;;5014708;28;20026;-52
2021/12/03 04:52:06;;;;;;;1.25;0.80;;;5.90;99.90;;;;;;5029134;28;20057;-52
2021/12/03 04:54:33;;;;;;;0.95;0.60;;;5.80;99.90;;;;;;5012425;28;20034;-53
2021/12/03 04:56:58;;;;;;;1.80;0.82;;;5.60;99.90;;;;;;5014440;28;20474;-48
2021/12/03 04:59:25;;;;;;;1.08;0.70;;;5.60;99.90;;;;;;5013517;28;20121;-50
2021/12/03 05:01:54;;;;;;;0.60;0.60;;;5.50;99.90;;;;;;5014110;28;20386;-46
2021/12/03 05:04:20;;;;;;;0.88;0.80;;;5.40;99.90;;;;;;5011337;28;20092;-50
2021/12/03 05:07:16;;;;;;;4.85;2.75;;;5.30;99.90;;;;;;5013682;28;20030;-49
2021/12/03 05:09:43;;;;;;;1.00;0.90;;;5.30;99.90;;;;;;4994917;28;20091;-52
2021/12/03 05:12:08;;;;;;;0.98;0.75;;;5.30;99.90;;;;;;4994529;28;20031;-49
2021/12/03 05:14:34;;;;;;;2.15;1.10;;;5.20;99.90;;;;;;5008886;28;20117;-51
2021/12/03 05:17:00;;;;;;;7.80;4.30;;;5.30;99.90;;;;;;4994756;28;20026;-49
2021/12/03 05:19:26;;;;;;;0.95;0.85;;;5.10;99.90;;;;;;5011552;28;20042;-49
2021/12/03 05:21:51;;;;;;;1.30;0.80;;;5.10;99.90;;;;;;5013466;28;20061;-54
2021/12/03 05:24:18;;;;;;;1.50;1.40;;;5.10;99.90;;;;;;5028499;28;20052;-51
2021/12/03 05:26:45;;;;;;;1.13;1.00;;;;;;;;;;5013773;28;20029;-51
2021/12/03 05:29:12;;;;;;;1.00;0.82;;;4.80;99.90;;;;;;4998997;28;20038;-50
2021/12/03 05:31:38;;;;;;;1.75;1.02;;;4.50;99.90;;;;;;4994407;28;20034;-50
2021/12/03 05:34:09;;;;;;;2.28;1.08;;;4.50;99.90;;;;;;4994363;28;20152;-52
2021/12/03 05:36:35;;;;;;;1.13;1.02;;;4.40;99.90;;;;;;4994266;28;20109;-52
2021/12/03 05:39:01;;;;;;;2.03;1.20;;;4.30;99.90;;;;;;5005202;28;20056;-51
2021/12/03 05:41:27;;;;;;;2.35;1.33;;;4.20;99.90;;;;;;5013458;28;20724;-49
2021/12/03 05:43:53;;;;;;;2.05;1.55;;;4.20;99.90;;;;;;5013554;28;20037;-52
2021/12/03 05:46:18;;;;;;;1.63;1.30;;;4.20;99.90;;;;;;5012571;28;20045;-48
2021/12/03 05:48:44;;;;;;;2.70;1.20;;;4.20;99.90;;;;;;5008139;28;20562;-53
2021/12/03 05:51:10;;;;;;;3.20;2.10;;;4.00;99.90;;;;;;5011321;28;20445;-51
2021/12/03 05:53:36;;;;;;;2.00;1.45;;;3.90;99.90;;;;;;5013437;28;20536;-52
2021/12/03 05:56:03;;;;;;;2.92;2.17;;;3.80;99.90;;;;;;4977615;28;20434;-54
2021/12/03 05:58:29;;;;;;;3.28;1.70;;;3.80;99.90;;;;;;5012349;28;20397;-51
2021/12/03 06:00:55;;;;;;;3.88;2.58;;;3.90;99.90;;;;;;5013231;28;20034;-48
2021/12/03 06:03:21;;;;;;;6.75;4.28;;;3.90;99.90;;;;;;5013116;28;20547;-50
2021/12/03 06:05:47;;;;;;;4.45;2.50;;;4.10;99.90;;;;;;5013688;28;20076;-50
2021/12/03 06:08:13;;;;;;;2.95;2.08;;;4.00;99.90;;;;;;5007438;28;20026;-51
2021/12/03 06:10:39;;;;;;;3.53;2.08;;;4.10;99.90;;;;;;4999078;28;20406;-52
2021/12/03 06:13:05;;;;;;;3.50;2.13;;;4.00;99.90;;;;;;5025016;28;20041;-50
2021/12/03 06:15:31;;;;;;;8.68;5.68;;;4.00;99.90;;;;;;4993884;28;20038;-51
2021/12/03 06:17:57;;;;;;;6.65;3.45;;;4.00;99.90;;;;;;4991424;28;20406;-56
2021/12/03 06:20:23;;;;;;;4.78;3.60;;;3.90;99.90;;;;;;4993427;28;20026;-50
2021/12/03 06:22:50;;;;;;;6.47;3.30;;;3.80;99.90;;;;;;4975026;28;20081;-52
2021/12/03 06:25:17;;;;;;;3.78;2.33;;;3.70;99.90;;;;;;4993783;28;20018;-51
2021/12/03 06:27:43;;;;;;;3.63;2.25;;;3.70;99.90;;;;;;4993295;28;20030;-53
2021/12/03 06:30:14;;;;;;;5.32;3.30;;;3.50;99.90;;;;;;5011285;28;20037;-55
2021/12/03 06:32:41;;;;;;;6.68;3.40;;;3.50;99.90;;;;;;5012780;28;20034;-50
2021/12/03 06:35:09;;;;;;;4.72;3.15;;;3.50;99.90;;;;;;5012683;28;20034;-51
2021/12/03 06:37:36;;;;;;;2.22;1.90;;;3.50;99.90;;;;;;5013212;28;20485;-52
2021/12/03 06:40:02;;;;;;;3.70;2.88;;;3.40;99.90;;;;;;5027268;28;20037;-53
2021/12/03 06:42:29;;;;;;;3.55;2.60;;;3.40;99.90;;;;;;5012711;28;20029;-52
2021/12/03 06:44:54;;;;;;;2.50;1.98;;;3.50;99.90;;;;;;5013006;28;20037;-50
2021/12/03 06:47:20;;;;;;;3.97;2.70;;;3.50;99.90;;;;;;5012510;28;20054;-51
2021/12/03 06:50:16;;;;;;;2.53;2.05;;;3.60;99.90;;;;;;5012738;28;20496;-54
2021/12/03 06:52:45;;;;;;;3.92;2.30;;;3.60;99.90;;;;;;5008623;28;20099;-53
2021/12/03 06:55:14;;;;;;;3.20;2.30;;;3.60;99.90;;;;;;5015578;28;20038;-50
2021/12/03 06:57:44;;;;;;;4.28;3.00;;;3.60;99.90;;;;;;5001945;28;20044;-53
2021/12/03 07:00:14;;;;;;;4.78;2.97;;;3.50;99.90;;;;;;5002027;28;20371;-50
2021/12/03 07:02:40;;;;;;;6.57;4.78;;;3.70;99.90;;;;;;5020952;28;20417;-51
2021/12/03 07:05:08;;;;;;;7.50;5.32;;;3.70;99.90;;;;;;5011710;28;20042;-52
2021/12/03 07:07:34;;;;;;;4.50;3.80;;;3.70;99.90;;;;;;5008056;28;20030;-51
2021/12/03 07:10:02;;;;;;;4.28;3.40;;;3.80;99.90;;;;;;5010120;28;20504;-50
2021/12/03 07:12:28;;;;;;;4.97;2.97;;;3.90;99.90;;;;;;5009480;28;20067;-50
2021/12/03 07:14:54;;;;;;;3.88;2.78;;;3.90;99.90;;;;;;5009107;28;20084;-52
2021/12/03 07:17:20;;;;;;;4.43;2.88;;;3.90;99.90;;;;;;5011657;28;20037;-52
2021/12/03 07:19:46;;;;;;;17.60;14.63;;;3.90;99.90;;;;;;5012273;28;20034;-53
2021/12/03 07:22:12;;;;;;;3.53;2.67;;;4.00;99.90;;;;;;5008033;28;20044;-50
2021/12/03 07:24:38;;;;;;;4.32;2.20;;;4.10;99.90;;;;;;5006697;28;20112;-52
2021/12/03 07:27:05;;;;;;;3.72;2.10;;;4.20;99.90;;;;;;5009028;28;20788;-53
2021/12/03 07:29:32;;;;;;;2.83;1.98;;;4.10;99.90;;;;;;5007745;28;20474;-52
2021/12/03 07:31:58;;;;;;;2.10;1.38;;;4.20;99.90;;;;;;5021305;28;20042;-53
2021/12/03 07:34:24;;;;;;;4.00;2.70;;;4.10;99.90;;;;;;5008945;28;20030;-52
2021/12/03 07:36:50;;;;;;;3.85;2.42;;;4.30;99.90;;;;;;5001896;28;20470;-52
2021/12/03 07:39:15;;;;;;;4.10;2.50;;;4.40;99.90;;;;;;5010049;28;20065;-51
2021/12/03 07:41:42;;;;;;;3.28;2.20;;;4.40;99.90;;;;;;5008538;28;20053;-52
2021/12/03 07:44:10;;;;;;;3.85;2.22;;;4.40;99.90;;;;;;5008657;28;20046;-53
2021/12/03 07:46:36;;;;;;;3.22;2.08;;;4.50;99.90;;;;;;5005457;28;20042;-54
2021/12/03 07:49:03;;;;;;;2.63;1.73;;;4.60;99.90;;;;;;5010774;28;20038;-52
2021/12/03 07:51:29;;;;;;;3.88;3.45;;;4.50;99.90;;;;;;5008345;28;20037;-49
2021/12/03 07:53:55;;;;;;;22.85;12.20;;;4.60;99.90;;;;;;5011989;28;20038;-54
2021/12/03 07:56:21;;;;;;;4.03;2.85;;;4.60;99.90;;;;;;5010044;28;20123;-52
2021/12/03 07:58:46;;;;;;;18.25;14.55;;;4.60;99.90;;;;;;5007661;28;20478;-52
2021/12/03 08:01:13;;;;;;;7.82;4.97;;;4.50;99.90;;;;;;5010986;28;20064;-54
2021/12/03 08:03:39;;;;;;;10.80;6.30;;;4.60;99.90;;;;;;5009243;28;20046;-53
2021/12/03 08:06:09;;;;;;;8.07;5.22;;;4.60;99.90;;;;;;5005046;28;20032;-55
2021/12/03 08:08:39;;;;;;;8.82;6.25;;;4.70;99.90;;;;;;4975624;28;20390;-59
2021/12/03 08:11:05;;;;;;;17.58;11.70;;;4.80;99.90;;;;;;4972064;28;20478;-55
2021/12/03 08:13:33;;;;;;;11.75;8.07;;;5.00;99.90;;;;;;4990207;28;20070;-56
2021/12/03 08:15:59;;;;;;;6.90;5.32;;;5.00;99.90;;;;;;4988951;28;20290;-57
2021/12/03 08:18:25;;;;;;;8.00;5.22;;;5.00;99.90;;;;;;4986333;28;20081;-60
2021/12/03 08:20:53;;;;;;;6.35;4.32;;;5.10;99.90;;;;;;4971936;28;20038;-63
2021/12/03 08:23:19;;;;;;;6.28;4.65;;;5.10;99.90;;;;;;4982322;28;20146;-61
2021/12/03 08:25:45;;;;;;;14.60;7.72;;;5.20;99.90;;;;;;4975105;28;20542;-62
2021/12/03 08:28:11;;;;;;;11.13;8.18;;;5.30;99.90;;;;;;4988394;28;20376;-54
2021/12/03 08:30:37;;;;;;;7.13;5.20;;;6.00;99.90;;;;;;4988156;28;20045;-59
2021/12/03 08:33:03;;;;;;;9.00;6.47;;;5.30;99.90;;;;;;4988600;28;20039;-55
2021/12/03 08:35:29;;;;;;;6.50;4.75;;;5.30;99.90;;;;;;4988654;28;20117;-59
2021/12/03 08:37:56;;;;;;;13.98;8.63;;;5.30;99.90;;;;;;4987117;28;20487;-61
2021/12/03 08:40:23;;;;;;;10.80;6.15;;;5.30;99.90;;;;;;5023709;28;20063;-57
2021/12/03 08:42:49;;;;;;;18.75;8.95;;;5.40;99.90;;;;;;5026856;28;20044;-58
2021/12/03 08:45:20;;;;;;;5.47;3.90;;;5.40;99.90;;;;;;5027671;28;20436;-57
2021/12/03 08:47:50;;;;;;;5.32;3.63;;;5.40;99.90;;;;;;5027684;28;20513;-59
2021/12/03 08:50:27;;;;;;;4.97;2.90;;;5.40;99.90;;;;;;5014553;28;20045;-60
2021/12/03 08:53:17;;;;;;;6.07;4.53;;;5.20;99.90;;;;;;5024092;28;20037;-52
2021/12/03 08:55:44;;;;;;;6.53;3.90;;;5.40;99.90;;;;;;5023145;28;20132;-61
2021/12/03 08:58:10;;;;;;;13.45;8.32;;;5.40;99.90;;;;;;5007222;28;20045;-58
2021/12/03 09:00:37;;;;;;;8.43;5.68;;;5.50;99.90;;;;;;5006212;28;20080;-54
2021/12/03 09:03:05;;;;;;;8.20;5.57;;;5.60;99.90;;;;;;5010427;28;20046;-55
2021/12/03 09:05:32;;;;;;;9.45;6.03;;;5.70;99.90;;;;;;5005642;28;20089;-61
2021/12/03 09:07:58;;;;;;;7.85;5.47;;;5.60;99.90;;;;;;5008153;28;20076;-61
2021/12/03 09:10:25;;;;;;;5.90;4.60;;;5.70;99.90;;;;;;5007045;28;20426;-58
2021/12/03 09:12:51;;;;;;;8.85;7.70;;;5.80;99.90;;;;;;5008452;28;20029;-65
2021/12/03 09:15:23;;;;;;;6.38;4.50;;;5.90;99.90;;;;;;5005694;28;20038;-57
2021/12/03 09:18:04;;;;;;;5.85;4.35;;;5.90;99.90;;;;;;5008287;28;20034;-63
2021/12/03 09:26:05;;;;;;;6.68;5.20;;;6.00;99.90;;;;;;5006622;28;20057;-59
2021/12/03 09:28:33;;;;;;;7.18;5.97;;;6.10;99.90;;;;;;5006476;28;20034;-58
2021/12/03 09:30:59;;;;;;;8.85;5.85;;;6.10;99.90;;;;;;5004196;28;20371;-54
2021/12/03 09:33:28;;;;;;;6.47;5.10;;;6.10;99.90;;;;;;5006042;28;20033;-51
2021/12/03 09:35:58;;;;;;;8.35;6.00;;;6.10;99.90;;;;;;4956424;28;20456;-61
2021/12/03 09:38:25;;;;;;;8.45;6.15;;;6.20;99.90;;;;;;5006475;28;20101;-59
2021/12/03 09:40:51;;;;;;;8.07;6.18;;;6.20;99.90;;;;;;5004521;28;20030;-49
2021/12/03 09:43:17;;;;;;;9.40;5.53;;;6.20;99.90;;;;;;4999594;28;20045;-58
2021/12/03 09:45:55;;;;;;;7.90;6.45;;;6.20;99.90;;;;;;5004965;28;20092;-54
2021/12/03 09:48:48;;;;;;;8.02;6.60;;;6.20;99.90;;;;;;5006940;28;20029;-55
2021/12/03 09:51:13;;;;;;;12.50;9.18;;;6.30;99.90;;;;;;5006634;28;20593;-59
2021/12/03 09:56:12;;;;;;;9.70;7.05;;;6.20;99.90;;;;;;4978640;28;20452;-61
2021/12/03 10:01:37;;;;;;;8.13;6.13;;;6.30;99.90;;;;;;5003334;28;20052;-54
2021/12/03 10:15:10;;;;;;;;;;;6.20;99.90;;;;;;5014008;28;20029;-58
2021/12/03 10:49:14;;;;;;;11.43;8.50;;;6.70;99.90;;;;;;5012767;28;20117;-64
2021/12/03 14:39:58;;;;;;;19.73;11.20;;;7.10;99.90;;;;;;4969974;28;20426;-52
2021/12/03 14:45:09;;;;;;;17.52;12.10;;;7.00;99.90;;;;;;4968268;28;20046;-55
2021/12/03 14:52:43;;;;;;;;;;;7.00;99.90;;;;;;4970437;28;20049;-52
2021/12/03 14:55:10;;;;;;;20.80;12.43;;;7.10;99.90;;;;;;4970041;28;19997;-55
2021/12/03 15:00:44;;;;;;;22.73;13.95;;;7.30;99.90;;;;;;4969836;28;20050;-52
2021/12/03 15:08:54;;;;;;;37.17;22.27;;;7.60;99.90;;;;;;4988677;28;20146;-51
2021/12/03 15:33:06;;;;;;;47.28;25.48;;;7.90;99.90;;;;;;5009779;28;20080;-53
2021/12/03 16:04:49;;;;;;;26.27;16.95;;;7.60;99.90;;;;;;5069327;28;20105;-54
2021/12/03 16:10:17;;;;;;;19.50;13.63;;;7.70;99.90;;;;;;5101816;28;20043;-53
2021/12/03 16:52:59;;;;;;;19.50;12.25;;;7.10;99.90;;;;;;5094041;28;20032;-54
2021/12/03 16:55:24;;;;;;;25.25;13.95;;;7.20;99.90;;;;;;5094956;28;20047;-53
2021/12/03 16:57:53;;;;;;;22.98;11.93;;;7.30;99.90;;;;;;5094970;28;20032;-53
2021/12/03 17:00:50;;;;;;;32.40;20.40;;;7.20;99.90;;;;;;5094843;28;20040;-53
2021/12/03 17:03:24;;;;;;;34.58;21.10;;;7.30;99.90;;;;;;5094597;28;20039;-53
2021/12/03 17:13:44;;;;;;;20.63;13.15;;;7.40;99.90;;;;;;5094706;28;20038;-53
2021/12/03 17:19:28;;;;;;;16.02;10.63;;;7.60;99.90;;;;;;5115011;28;20023;-53
2021/12/03 18:00:47;;;;;;;25.05;15.13;;;7.50;99.90;;;;;;5031141;28;20124;-53
2021/12/03 18:08:48;;;;;;;22.08;13.45;;;7.40;99.90;;;;;;4991567;28;20041;-53
2021/12/03 18:17:25;;;;;;;15.65;10.20;;;7.40;99.90;;;;;;4958129;28;20570;-53
2021/12/03 18:55:41;;;;;;;65.13;57.28;;;7.20;99.90;;;;;;5070124;28;20056;-53
2021/12/03 18:58:05;;;;;;;32.47;25.35;;;7.30;99.90;;;;;;5069778;28;20036;-54
2021/12/03 19:00:35;;;;;;;35.03;28.95;;;7.30;99.90;;;;;;5069792;28;20415;-53
2021/12/03 19:03:05;;;;;;;20.70;12.82;;;7.30;99.90;;;;;;5069921;28;20037;-53
2021/12/03 19:08:08;;;;;;;16.75;12.07;;;7.30;99.90;;;;;;5069788;28;20101;-52
2021/12/03 19:10:44;;;;;;;19.65;10.95;;;7.40;99.90;;;;;;5069647;28;20043;-53
2021/12/03 19:13:14;;;;;;;19.52;12.38;;;7.40;99.90;;;;;;5069733;28;20040;-53
2021/12/03 19:15:42;;;;;;;17.13;10.60;;;7.40;99.90;;;;;;5105487;28;20039;-53
2021/12/03 19:18:08;;;;;;;14.45;10.40;;;7.20;99.90;;;;;;5093798;28;20055;-54
2021/12/03 19:20:38;;;;;;;18.55;10.85;;;7.30;99.90;;;;;;5112484;28;20023;-53
2021/12/03 19:23:04;;;;;;;11.85;8.40;;;7.20;99.90;;;;;;5112396;28;20471;-54
2021/12/03 19:25:30;;;;;;;15.18;11.45;;;7.20;99.90;;;;;;5112432;28;20027;-54
2021/12/03 19:27:56;;;;;;;13.75;9.95;;;7.10;99.90;;;;;;5076268;28;20063;-53
2021/12/03 19:30:22;;;;;;;15.98;10.20;;;7.00;99.90;;;;;;5112583;28;20038;-53
2021/12/03 19:32:47;;;;;;;16.55;9.55;;;7.00;99.90;;;;;;5112536;28;20027;-52
2021/12/03 19:35:13;;;;;;;14.23;9.25;;;6.90;99.90;;;;;;5112402;28;20470;-53
2021/12/03 19:37:39;;;;;;;14.07;10.57;;;6.90;99.90;;;;;;5112424;28;20027;-53
2021/12/03 19:40:10;;;;;;;15.15;10.65;;;7.00;99.90;;;;;;5112670;28;20063;-53
2021/12/03 19:42:58;;;;;;;15.00;9.25;;;6.90;99.90;;;;;;5077188;28;20039;-53
2021/12/03 19:45:27;;;;;;;13.82;9.25;;;6.90;99.90;;;;;;5112145;28;20035;-53
2021/12/03 19:48:04;;;;;;;15.35;11.35;;;6.90;99.90;;;;;;5112465;28;20067;-52
2021/12/03 19:50:38;;;;;;;18.05;14.50;;;6.90;99.90;;;;;;5112169;28;20046;-53
2021/12/03 19:55:36;;;;;;;41.90;32.28;;;6.90;99.90;;;;;;5112267;28;20027;-54
2021/12/03 19:58:03;;;;;;;22.75;16.45;;;6.90;99.90;;;;;;5112589;28;20078;-53
2021/12/03 20:00:29;;;;;;;16.95;12.38;;;6.90;99.90;;;;;;5112380;28;20023;-52
2021/12/03 20:02:55;;;;;;;11.90;9.60;;;6.70;99.90;;;;;;5112180;28;20392;-53
2021/12/03 20:05:22;;;;;;;16.05;9.85;;;6.60;99.90;;;;;;5058849;28;20540;-52
2021/12/03 20:07:48;;;;;;;15.07;11.55;;;6.60;99.90;;;;;;5112135;28;20031;-52
2021/12/03 20:10:18;;;;;;;16.05;11.80;;;6.60;99.90;;;;;;5112180;28;20394;-52
2021/12/03 20:12:47;;;;;;;15.35;9.63;;;6.60;99.90;;;;;;5112067;28;20035;-52
2021/12/03 20:15:19;;;;;;;18.15;11.25;;;6.70;99.90;;;;;;5111786;28;20047;-56
2021/12/03 20:17:53;;;;;;;15.45;10.20;;;6.90;99.90;;;;;;5111817;28;20038;-54
2021/12/03 20:20:19;;;;;;;17.27;11.50;;;7.00;99.90;;;;;;5111793;28;20027;-52
2021/12/03 20:22:51;;;;;;;15.52;10.23;;;7.10;99.90;;;;;;5112005;28;20359;-51
2021/12/03 20:30:46;;;;;;;12.10;8.07;;;7.00;99.90;;;;;;5116210;28;20081;-51
2021/12/03 20:38:30;;;;;;;14.07;9.27;;;6.70;99.90;;;;;;5115986;28;20485;-46
2021/12/03 20:41:00;;;;;;;14.02;9.05;;;6.50;99.90;;;;;;5115877;28;20031;-47
2021/12/03 20:46:29;;;;;;;14.48;9.20;;;6.70;99.90;;;;;;5064643;28;20066;-47
2021/12/03 20:49:11;;;;;;;15.70;9.65;;;6.60;99.90;;;;;;5092617;28;20040;-47
2021/12/03 20:54:30;;;;;;;12.77;8.40;;;6.60;99.90;;;;;;5092995;28;20039;-47
2021/12/03 21:10:24;;;;;;;12.55;8.98;;;7.00;99.90;;;;;;5092457;28;20039;-46
2021/12/03 21:12:53;;;;;;;13.80;9.10;;;7.00;99.90;;;;;;5092156;28;20139;-47
2021/12/03 21:15:31;;;;;;;14.25;8.65;;;6.90;99.90;;;;;;5092010;28;20519;-47
2021/12/03 21:18:28;;;;;;;18.83;11.55;;;6.60;99.90;;;;;;5092036;28;20554;-47
2021/12/03 21:23:25;;;;;;;18.80;11.32;;;6.50;99.90;;;;;;5104349;28;20399;-48
2021/12/03 21:25:55;;;;;;;16.42;12.98;;;6.70;99.90;;;;;;5095826;28;20680;-47
2021/12/03 21:28:38;;;;;;;17.60;11.57;;;6.80;99.90;;;;;;5092721;28;20402;-47
2021/12/03 21:41:24;;;;;;;16.05;10.75;;;7.30;99.90;;;;;;5094943;28;20039;-48
2021/12/03 21:44:05;;;;;;;16.92;11.00;;;7.30;99.90;;;;;;5096391;28;20047;-47
2021/12/03 21:46:35;;;;;;;16.63;10.63;;;7.30;99.90;;;;;;5109654;28;20039;-47
2021/12/03 21:49:01;;;;;;;16.33;11.15;;;7.20;99.90;;;;;;5113686;28;20462;-47
2021/12/03 21:51:28;;;;;;;12.73;9.63;;;7.30;99.90;;;;;;5113272;28;20032;-48